Private Wetterstation Nrnberg - Katzwang
Wetterdaten: August 2011
Datum Temp. A. Feuchte A. Luftdruck Regen Wind Richtung Taupunkt Windchill Windben
01.08.2011 17,3 C 76 % 1015 hPa 0,0 l/m 0,9 km/h N-NO 13,0 C 17,3 C 1,9 km/h
02.08.2011 20,6 C 66 % 1016 hPa 0,0 l/m 2,6 km/h NO 13,7 C 20,4 C 3,6 km/h
03.08.2011 21,4 C 69 % 1015 hPa 0,0 l/m 3,3 km/h O-NO 15,2 C 21,3 C 4,3 km/h
04.08.2011 20,5 C 76 % 1014 hPa 0,5 l/m 0,3 km/h W-NW 16,0 C 20,5 C 1,4 km/h
05.08.2011 21,8 C 79 % 1012 hPa 7,8 l/m 2,8 km/h W-NW 17,6 C 21,8 C 3,8 km/h
06.08.2011 23,2 C 75 % 1006 hPa 2,6 l/m 10,3 km/h N-NO 18,3 C 22,2 C 11,8 km/h
07.08.2011 18,3 C 82 % 1007 hPa 5,2 l/m 3,6 km/h W-NW 15,1 C 18,1 C 4,6 km/h
08.08.2011 17,2 C 71 % 1009 hPa 1,6 l/m 3,6 km/h W-NW 11,9 C 17,1 C 4,6 km/h
09.08.2011 14,4 C 77 % 1017 hPa 8,8 l/m 4,3 km/h W-NW 10,2 C 13,9 C 5,3 km/h
10.08.2011 13,7 C 72 % 1021 hPa 0,0 l/m 2,0 km/h W-NW 8,5 C 13,5 C 3,0 km/h
11.08.2011 18,0 C 68 % 1014 hPa 0,0 l/m 2,9 km/h W-NW 11,5 C 17,6 C 3,9 km/h
12.08.2011 19,5 C 71 % 1011 hPa 0,5 l/m 6,1 km/h W-NW 14,0 C 19,0 C 9,9 km/h
13.08.2011 19,7 C 77 % 1010 hPa 2,1 l/m 0,0 km/h W-NW 15,5 C 19,7 C 1,0 km/h
14.08.2011 21,2 C 78 % 1008 hPa 12,4 l/m 5,0 km/h W-NW 16,8 C 21,1 C 6,0 km/h
15.08.2011 18,6 C 83 % 1013 hPa 10,4 l/m 1,5 km/h N-NO 15,7 C 18,6 C 2,5 km/h
16.08.2011 18,7 C 77 % 1017 hPa 0,0 l/m 0,0 km/h NO 14,4 C 18,7 C 1,0 km/h
17.08.2011 20,7 C 67 % 1015 hPa 0,0 l/m 1,9 km/h N-NO 13,8 C 20,6 C 2,9 km/h
18.08.2011 24,0 C 68 % 1012 hPa 0,0 l/m 0,7 km/h N-NO 17,2 C 24,0 C 1,7 km/h
19.08.2011 22,7 C 71 % 1016 hPa 7,3 l/m 7,0 km/h W-NW 16,9 C 22,0 C 8,0 km/h
20.08.2011 21,4 C 70 % 1019 hPa 0,0 l/m 1,0 km/h W-NW 15,4 C 21,4 C 2,0 km/h
21.08.2011 23,9 C 73 % 1016 hPa 0,0 l/m 1,2 km/h N-NO 18,5 C 23,9 C 2,2 km/h
22.08.2011 25,4 C 72 % 1016 hPa 0,0 l/m 2,2 km/h NO 19,8 C 25,4 C 3,2 km/h
23.08.2011 26,6 C 67 % 1013 hPa 0,0 l/m 1,2 km/h NO 19,5 C 26,6 C 2,2 km/h
24.08.2011 23,7 C 70 % 1013 hPa 3,6 l/m 7,5 km/h NO 17,6 C 22,5 C 8,5 km/h
25.08.2011 24,7 C 70 % 1012 hPa 0,0 l/m 2,0 km/h NO 18,6 C 24,7 C 3,0 km/h
26.08.2011 26,8 C 62 % 1004 hPa 0,0 l/m 2,9 km/h O 18,2 C 26,8 C 3,9 km/h
27.08.2011 13,8 C 81 % 1016 hPa 5,7 l/m 4,1 km/h W-NW 10,6 C 13,2 C 5,1 km/h
28.08.2011 15,9 C 71 % 1017 hPa 0,0 l/m 4,6 km/h N-NO 10,3 C 15,2 C 5,6 km/h
29.08.2011 16,0 C 66 % 1014 hPa 0,0 l/m 3,1 km/h W-NW 9,3 C 15,6 C 5,9 km/h
30.08.2011 15,3 C 66 % 1014 hPa 0,0 l/m 0,0 km/h N-NO 8,5 C 15,3 C 1,0 km/h
31.08.2011 16,1 C 70 % 1012 hPa 0,0 l/m 1,4 km/h N-NO 10,3 C 16,1 C 2,4 km/h
Min-Datum 11.08.11 26.08.11 26.08.11 13 Tage 01.08.11 - 11.08.11 11.08.11 01.08.11
Min-Zeit 06:10 16:40 18:30 - 00:00 - 06:10 06:20 00:00
Minimum 8,9 C 33 % 1002 hPa - 0,0 km/h - 6,3 C 6,2 C 1,0 km/h
Max-Datum 26.08.11 02.08.11 10.08.11 14.08.11 19.08.11 - 23.08.11 26.08.11 09.08.11
Max-Zeit 15:10 08:00 07:30 17:30 13:10 - 13:20 15:10 10:50
Maximum 34,8 C 88 % 1024 hPa 12,4 l/m 34,9 km/h
W-NW
- 22,7 C 34,8 C 71,5 km/h
W-NW
Durchschnitt 20,0 C 72 % 1013 hPa #68,4 l/m 2,9 km/h W-NW 14,6 C 19,8 C 4,1 km/h

Durchschnitt Minimum Temp.14,6 C
Durchschnitt Maximum Temp.26,4 C